• Join FlightAware (Why Join?)
  • Login
  • US Flag 
11:48PM EST


 

Airport Tracker/Info


-or-


 

Live Flight TrackerFlight Track Log ✈ JIA9346 ✈ 12-Sep-2013 ✈ KVPS - KOAJ

Flight Track Log - Related Links

Times and Time Zones

All times are in EDT time to prevent confusion due to time zone crossing. See the JIA9346 flight status page for this flight to view local times or setup timezone preferences in your user account.

Time Position Orientation Groundspeed Altitude Reporting Facility
EDT Latitude Longitude Course Direction KTS MPH feet Rate Location/Type
07:06PM 30.5650 -86.3133 357° North 293 337 10,000  Level Jacksonville Center
07:07PM 30.6419 -86.2439 38° Northeast 320 368 11,800 1,980 Climbing Jacksonville Center
07:08PM 30.7050 -86.1494 52° Northeast 331 381 14,000 2,160 Climbing Jacksonville Center
07:09PM 30.6488 -86.2224 60° Northeast  Level Estimated
07:09PM 30.7597 -86.0522 57° Northeast 349 402 16,200  Level Jacksonville Center
07:10PM 30.7010 -86.1263 60° Northeast  Level Estimated
07:10PM 30.8164 -85.9550 56° Northeast 354 407 17,700  Level Jacksonville Center
07:11PM 30.7985 -86.1326 357° North  Level FlightAware Approximate
07:11PM 30.8750 -85.8550 56° Northeast 364 419 19,300  Level Jacksonville Center
07:12PM 30.9339 -85.7528 56° Northeast 370 426 20,600 1,260 Climbing Jacksonville Center
07:13PM 30.9944 -85.6506 55° Northeast 375 432 21,800 1,080 Climbing Jacksonville Center
07:14PM 31.0575 -85.5408 56° Northeast 380 437 22,800 1,020 Climbing Jacksonville Center
07:15PM 31.1181 -85.4356 56° Northeast 385 443 23,900 1,020 Climbing Jacksonville Center
07:16PM 31.1786 -85.3281 57° Northeast 385 443 24,900 1,020 Climbing Jacksonville Center
07:17PM 31.2392 -85.2178 57° Northeast 385 443 26,000 1,020 Climbing Jacksonville Center
07:19PM 31.3439 -85.0333 56° Northeast 401 461 27,800 900 Climbing Atlanta Center
07:20PM 31.4075 -84.9244 56° Northeast 401 461 28,700 600 Climbing Atlanta Center
07:21PM 31.4728 -84.8106 56° Northeast 401 461 29,000 120 Climbing Atlanta Center
07:22PM 31.5383 -84.6919 57° Northeast 413 475 29,000  Level Atlanta Center
07:23PM 31.6078 -84.5706 56° Northeast 435 501 29,000  Level Atlanta Center
07:24PM 31.6769 -84.4489 56° Northeast 440 506 29,000  Level Atlanta Center
07:25PM 31.7464 -84.3269 56° Northeast 440 506 29,000  Level Atlanta Center
07:26PM 31.8153 -84.2003 57° Northeast 440 506 29,000  Level Atlanta Center
07:27PM 31.8844 -84.0781 56° Northeast 440 506 29,000  Level Atlanta Center
07:28PM 31.9533 -83.9531 57° Northeast 446 513 29,000  Level Atlanta Center
07:29PM 32.0239 -83.8258 57° Northeast 452 520 29,000  Level Atlanta Center
07:30PM 32.0925 -83.7006 57° Northeast 452 520 29,000  Level Atlanta Center
07:31PM 32.1589 -83.5800 57° Northeast 457 526 29,000  Level Atlanta Center
07:32PM 32.2272 -83.4544 57° Northeast 452 520 29,000  Level Atlanta Center
07:33PM 32.2956 -83.3286 57° Northeast 452 520 29,000  Level Atlanta Center
07:34PM 32.3636 -83.2028 57° Northeast 457 526 29,000  Level Atlanta Center
07:35PM 32.4378 -83.0667 57° Northeast 452 520 29,000  Level Atlanta Center
07:36PM 32.5056 -82.9403 58° Northeast 452 520 29,000  Level Atlanta Center
07:37PM 32.5631 -82.8264 59° Northeast 445 512 29,000  Level Atlanta Center
07:38PM 32.6306 -82.7019 57° Northeast 445 512 29,000  Level Atlanta Center
07:40PM 32.7400 -82.5097 56° Northeast 440 506 29,000  Level Jacksonville Center
07:41PM 32.8064 -82.3833 58° Northeast 440 506 29,000  Level Jacksonville Center
07:42PM 32.8728 -82.2594 57° Northeast 440 506 29,000  Level Jacksonville Center
07:43PM 32.9431 -82.1328 57° Northeast 445 512 29,000  Level Jacksonville Center
07:44PM 33.0111 -82.0058 57° Northeast 445 512 29,000  Level Jacksonville Center
07:45PM 33.0769 -81.8811 58° Northeast 445 512 29,000  Level Jacksonville Center
07:46PM 33.1425 -81.7564 58° Northeast 445 512 29,000  Level Jacksonville Center
07:47PM 33.2125 -81.6339 56° Northeast 445 512 29,000  Level Jacksonville Center
07:48PM 33.2839 -81.4961 58° Northeast 440 506 29,000  Level Jacksonville Center
07:49PM 33.3450 -81.3633 61° Northeast 440 506 29,000  Level Jacksonville Center
07:50PM 33.3958 -81.2506 62° Northeast 434 499 29,000  Level Jacksonville Center
07:51PM 33.4503 -81.1175 64° Northeast 434 499 29,000  Level Jacksonville Center
07:52PM 33.5069 -80.9819 63° Northeast 439 505 29,000  Level Jacksonville Center
07:53PM 33.5589 -80.8489 65° Northeast 439 505 29,000  Level Jacksonville Center
07:54PM 33.6153 -80.7153 63° Northeast 439 505 29,000  Level Jacksonville Center
07:55PM 33.6714 -80.5817 63° Northeast 439 505 29,000  Level Jacksonville Center
07:56PM 33.7272 -80.4453 64° Northeast 439 505 29,000  Level Jacksonville Center
07:57PM 33.7808 -80.3114 64° Northeast 444 511 29,000 -180 Level Jacksonville Center
07:58PM 33.8364 -80.1722 64° Northeast 444 511 28,700 -660 Descending Jacksonville Center
07:59PM 33.8939 -80.0353 63° Northeast 444 511 27,700 -1,020 Descending Jacksonville Center
08:00PM 33.9528 -79.8858 65° Northeast 444 511 26,700 -1,020 Descending Jacksonville Center
08:01PM 34.0039 -79.7514 65° Northeast 444 511 25,700 -1,200 Descending Jacksonville Center
08:02PM 34.0589 -79.6164 64° Northeast 444 511 24,300 -1,620 Descending Jacksonville Center
08:03PM 34.1097 -79.4842 65° Northeast 444 511 22,500 -1,740 Descending Jacksonville Center
08:04PM 34.1925 -79.2725 65° Northeast 409 471 19,800 -1,620 Descending Washington Center
08:05PM 34.2419 -79.1492 64° Northeast 409 471 18,300 -1,620 Descending Washington Center
08:06PM 34.2939 -79.0156 65° Northeast 429 494 16,600 -1,560 Descending Washington Center
08:08PM 34.3367 -78.9042 65° Northeast 419 482 15,200 -1,500 Descending Washington Center
08:08PM 34.3925 -78.7656 64° Northeast 413 475 13,600 -1,620 Descending Washington Center
08:09PM 34.4353 -78.6514 66° East 395 455 12,100 -1,380 Descending Washington Center
08:11PM 34.4758 -78.5344 67° East 383 441 10,900 -840 Descending Washington Center
08:12PM 34.4911 -78.4217 81° East 357 411 10,400 -960 Descending Washington Center
08:12PM 34.5161 -78.3292 72° East 319 367 9,100 -1,440 Descending Washington Center
08:14PM 34.5472 -78.2394 67° East 293 337 7,600 -1,560 Descending Washington Center
08:15PM 34.5806 -78.1497 66° East 282 325 6,000 -1,560 Descending Washington Center
08:16PM 34.6178 -78.0603 63° Northeast 287 330 4,500 -1,380 Descending Washington Center
08:16PM 34.6511 -77.9728 65° Northeast 287 330 3,300 -780 Descending Washington Center
08:18PM 34.6842 -77.8828 66° East 287 330 3,000 -360 Descending Washington Center
08:18PM 34.7147 -77.8028 65° Northeast 282 325 2,700 -480 Descending Washington Center
08:19PM 34.7411 -77.7328 65° Northeast 250 288 2,100 -600 Descending Washington Center